Time;durP1;ratioP1;P1;durP2;ratioP2;P2;SDS_P1;SDS_P2;PMS_P1;PMS_P2;Temp;Humidity;BMP_temperature;BMP_pressure;BME280_temperature;BME280_humidity;BME280_pressure;Samples;Min_cycle;Max_cycle;Signal;HPM_P1;HPM_P2
2022/01/29 00:00:47;;;;;;;1.80;0.70;;;;;;;13.71;78.61;102056.69;5024654;28;20105;-90
2022/01/29 00:03:13;;;;;;;3.55;0.50;;;;;;;13.66;79.43;102052.50;4996986;28;20511;-90
2022/01/29 00:05:38;;;;;;;4.53;0.65;;;;;;;13.62;78.42;102043.03;5013001;28;20042;-90
2022/01/29 00:08:04;;;;;;;5.07;1.42;;;;;;;13.36;80.32;102062.91;5012436;28;20068;-89
2022/01/29 00:10:31;;;;;;;2.42;0.73;;;;;;;13.54;79.92;102053.16;5013313;28;20056;-90
2022/01/29 00:12:56;;;;;;;2.38;0.60;;;;;;;13.44;80.93;102055.44;4996577;28;20030;-89
2022/01/29 00:15:22;;;;;;;3.33;0.60;;;;;;;13.48;80.19;102038.50;4993680;28;20405;-89
2022/01/29 00:17:47;;;;;;;4.63;0.73;;;;;;;13.44;80.21;102055.44;4993948;28;20481;-90
2022/01/29 00:20:13;;;;;;;5.07;0.88;;;;;;;13.35;81.26;102040.13;5008797;28;20034;-90
2022/01/29 00:22:38;;;;;;;6.75;1.02;;;;;;;13.42;80.40;102053.81;5000593;28;20045;-89
2022/01/29 00:25:04;;;;;;;9.30;0.57;;;;;;;13.40;81.13;102053.91;5012179;28;20030;-89
2022/01/29 00:27:34;;;;;;;4.68;0.60;;;;;;;13.55;79.58;102052.22;5004472;28;20030;-89
2022/01/29 00:30:05;;;;;;;4.65;0.90;;;;;;;13.56;79.64;102059.19;4997137;28;20038;-89
2022/01/29 00:32:31;;;;;;;;;;;;;;;13.62;79.33;102060.66;5007209;28;20072;-90
2022/01/29 00:34:56;;;;;;;5.93;0.95;;;;;;;13.49;79.91;102056.06;5015553;28;19917;-89
2022/01/29 00:37:21;;;;;;;6.07;1.02;;;;;;;13.39;80.56;102059.25;5008037;28;20049;-89
2022/01/29 00:39:47;;;;;;;6.45;0.90;;;;;;;13.53;80.23;102058.53;4997659;28;20033;-89
2022/01/29 00:42:13;;;;;;;4.18;0.90;;;;;;;13.71;78.41;102054.03;5015905;28;20030;-90
2022/01/29 00:44:38;;;;;;;4.55;1.17;;;;;;;13.70;78.17;102053.16;5016593;28;20064;-89
2022/01/29 00:47:04;;;;;;;7.85;1.33;;;;;;;13.42;79.77;102046.75;5016342;28;20050;-90
2022/01/29 00:49:30;;;;;;;6.07;1.88;;;;;;;13.26;81.89;102051.97;5016065;28;20053;-90
2022/01/29 00:51:55;;;;;;;6.55;1.27;;;;;;;13.44;81.17;102044.88;5015970;28;20372;-90
2022/01/29 00:54:21;;;;;;;11.80;1.20;;;;;;;13.20;81.95;102033.81;5016339;28;20109;-89
2022/01/29 00:56:46;;;;;;;11.55;1.40;;;;;;;13.43;80.94;102043.19;5013813;28;20014;-90
2022/01/29 00:59:11;;;;;;;9.00;1.35;;;;;;;13.25;82.68;102044.13;4996392;28;20057;-89
2022/01/29 01:01:37;;;;;;;7.35;1.60;;;;;;;13.59;79.92;102043.22;4996555;28;20109;-89
2022/01/29 01:04:02;;;;;;;6.18;1.50;;;;;;;13.37;81.38;102045.28;5014464;28;20026;-89
2022/01/29 01:06:27;;;;;;;3.80;1.20;;;;;;;13.50;80.94;102038.44;5016252;28;20275;-89
2022/01/29 01:08:53;;;;;;;4.70;1.20;;;;;;;13.52;81.27;102038.34;4999352;28;20453;-90
2022/01/29 01:11:18;;;;;;;10.65;2.38;;;;;;;13.34;81.72;102034.91;4996313;28;20042;-89
2022/01/29 01:13:44;;;;;;;8.95;1.33;;;;;;;13.42;81.36;102036.19;4998592;28;20084;-89
2022/01/29 01:16:09;;;;;;;4.55;1.20;;;;;;;13.37;81.16;102030.34;4997009;28;20038;-90
2022/01/29 01:18:34;;;;;;;6.53;1.08;;;;;;;13.56;80.81;102038.09;4999880;28;20038;-89
2022/01/29 01:21:00;;;;;;;2.63;0.68;;;;;;;13.59;80.37;102022.09;4996193;28;20054;-89
2022/01/29 01:23:25;;;;;;;2.08;0.52;;;;;;;13.41;81.85;102020.47;5014720;28;20396;-90
2022/01/29 01:25:50;;;;;;;3.58;0.60;;;;;;;13.36;81.84;102020.69;5015673;28;20062;-89
2022/01/29 01:28:16;;;;;;;3.58;0.63;;;;;;;13.35;82.09;102021.66;5014273;28;20487;-89
2022/01/29 01:30:42;;;;;;;3.53;0.63;;;;;;;13.48;81.02;102025.31;5015618;28;20083;-89
2022/01/29 01:33:08;;;;;;;2.42;0.50;;;;;;;13.49;81.28;102016.47;4999834;28;20180;-90
2022/01/29 01:35:47;;;;;;;6.03;0.60;;;;;;;13.44;81.27;102023.78;4995713;28;20491;-89
2022/01/29 01:38:18;;;;;;;4.70;0.57;;;;;;;13.23;83.39;102024.88;5009892;28;20034;-89
2022/01/29 01:40:49;;;;;;;7.65;1.05;;;;;;;13.53;80.86;102026.88;5015356;28;20032;-90
2022/01/29 01:43:15;;;;;;;3.55;0.68;;;;;;;13.37;82.27;102027.69;4998891;28;20030;-90
2022/01/29 01:45:40;;;;;;;6.90;1.25;;;;;;;13.52;81.78;102030.44;5004381;28;20038;-89
2022/01/29 01:48:06;;;;;;;3.92;0.77;;;;;;;13.36;81.87;102025.13;5015173;28;20022;-89
2022/01/29 01:50:34;;;;;;;4.88;0.68;;;;;;;13.44;81.58;102023.78;5006888;28;20018;-89
2022/01/29 01:53:00;;;;;;;4.78;1.10;;;;;;;13.51;80.81;102023.44;4995355;28;20104;-90
2022/01/29 01:55:26;;;;;;;7.93;0.80;;;;;;;13.66;79.88;102022.59;5000969;28;20034;-89
2022/01/29 01:57:52;;;;;;;9.93;1.02;;;;;;;13.74;79.12;102020.38;5014356;28;20101;-89
2022/01/29 02:00:18;;;;;;;6.80;0.90;;;;;;;13.58;79.79;102014.25;5014329;28;20176;-90
2022/01/29 02:02:44;;;;;;;7.50;1.23;;;;;;;13.53;80.56;102017.16;5014634;28;20472;-90
2022/01/29 02:05:10;;;;;;;4.68;1.38;;;;;;;13.49;80.51;102016.47;5012035;28;20030;-89
2022/01/29 02:07:36;;;;;;;5.88;2.00;;;;;;;13.56;80.03;102016.13;4993763;28;20026;-89
2022/01/29 02:10:09;;;;;;;3.00;0.60;;;;;;;13.63;79.31;102014.88;4995388;28;20044;-89
2022/01/29 02:12:52;;;;;;;5.45;0.93;;;;;;;13.47;79.76;102012.22;5014282;28;20041;-90
2022/01/29 02:15:20;;;;;;;4.00;0.60;;;;;;;13.51;80.07;102005.84;5011985;28;20093;-90
2022/01/29 02:17:46;;;;;;;3.10;0.50;;;;;;;13.43;80.41;102008.06;4994736;28;20030;-89
2022/01/29 02:20:17;;;;;;;3.35;0.60;;;;;;;13.45;81.18;102008.81;4994935;28;20030;-90
2022/01/29 02:22:43;;;;;;;2.95;0.75;;;;;;;13.32;81.34;102002.50;4993419;28;20033;-89
2022/01/29 02:25:34;;;;;;;5.03;0.57;;;;;;;13.44;80.85;101986.84;4994537;28;20075;-89
2022/01/29 02:28:11;;;;;;;4.00;0.60;;;;;;;13.24;81.32;101985.25;5011077;28;20042;-90
2022/01/29 02:30:39;;;;;;;5.20;0.60;;;;;;;13.32;81.56;101982.22;5010902;28;20030;-90
2022/01/29 02:33:07;;;;;;;3.45;1.17;;;;;;;13.44;80.43;101984.19;4994251;28;20031;-89
2022/01/29 02:35:37;;;;;;;5.00;0.60;;;;;;;13.37;80.59;101969.66;4994330;28;20381;-90
2022/01/29 02:38:02;;;;;;;4.30;0.80;;;;;;;13.08;82.36;101969.41;4994366;28;20388;-89
2022/01/29 02:40:28;;;;;;;7.60;0.80;;;;;;;13.25;82.26;101981.69;4996897;28;20017;-90
2022/01/29 02:42:56;;;;;;;2.88;0.40;;;;;;;13.10;83.01;101986.00;5012628;28;20476;-88
2022/01/29 02:45:21;;;;;;;5.25;0.65;;;;;;;12.98;83.33;101978.75;5013562;28;20116;-89
2022/01/29 02:47:47;;;;;;;2.58;0.57;;;;;;;13.03;83.57;101971.44;5013632;28;20149;-89
2022/01/29 02:50:13;;;;;;;3.00;0.90;;;;;;;13.10;82.83;101971.97;5012607;28;20022;-89
2022/01/29 02:52:38;;;;;;;4.32;1.02;;;;;;;13.14;82.28;101978.78;4996564;28;20364;-90
2022/01/29 02:55:05;;;;;;;2.30;0.68;;;;;;;13.20;82.25;101982.88;4996685;28;20030;-89
2022/01/29 02:57:31;;;;;;;3.50;0.60;;;;;;;13.36;80.87;101978.50;5013155;28;20465;-90
2022/01/29 03:00:00;;;;;;;3.60;0.63;;;;;;;13.47;80.12;101964.72;5011462;28;20037;-90
2022/01/29 03:02:27;;;;;;;4.82;0.50;;;;;;;13.25;80.96;101970.28;4994060;28;20018;-89
2022/01/29 03:04:53;;;;;;;0.50;0.30;;;;;;;13.29;80.80;101962.16;4994133;28;20027;-90
2022/01/29 03:07:18;;;;;;;2.03;0.50;;;;;;;13.52;79.17;101956.53;4994490;28;20029;-90
2022/01/29 03:09:43;;;;;;;5.47;0.60;;;;;;;13.43;80.01;101960.56;5004948;28;20022;-89
2022/01/29 03:12:09;;;;;;;1.50;0.52;;;;;;;13.45;79.82;101963.97;5012572;28;20399;-90
2022/01/29 03:14:34;;;;;;;3.25;0.60;;;;;;;13.55;79.13;101956.38;5003412;28;20042;-90
2022/01/29 03:17:00;;;;;;;3.95;0.65;;;;;;;13.53;79.37;101947.72;5003678;28;20030;-89
2022/01/29 03:19:25;;;;;;;1.73;0.30;;;;;;;13.55;79.03;101943.19;5008432;28;20030;-89
2022/01/29 03:21:50;;;;;;;1.75;0.32;;;;;;;13.31;80.60;101950.66;5006361;28;20026;-90
2022/01/29 03:24:16;;;;;;;1.10;0.38;;;;;;;13.54;79.43;101944.13;5006307;28;20572;-89
2022/01/29 03:26:41;;;;;;;1.65;0.30;;;;;;;13.28;81.29;101943.75;5007856;28;20075;-90
2022/01/29 03:29:06;;;;;;;2.15;0.30;;;;;;;13.39;80.00;101951.94;5007500;28;20022;-89
2022/01/29 03:31:32;;;;;;;1.42;0.35;;;;;;;13.25;80.63;101938.63;5008358;28;20503;-89
2022/01/29 03:33:57;;;;;;;3.25;0.47;;;;;;;13.40;79.88;101945.72;5010454;28;20067;-89
2022/01/29 03:36:23;;;;;;;1.58;0.40;;;;;;;13.51;79.39;101945.16;5009108;28;20468;-90
2022/01/29 03:38:48;;;;;;;4.15;0.60;;;;;;;13.24;80.23;101935.13;5029674;28;20032;-89
2022/01/29 03:41:14;;;;;;;3.05;0.30;;;;;;;13.39;79.74;101930.84;5034304;28;20029;-89
2022/01/29 03:43:45;;;;;;;1.05;0.15;;;;;;;13.52;78.94;101936.28;5031327;28;20081;-88
2022/01/29 03:46:11;;;;;;;2.73;0.30;;;;;;;13.40;79.84;101921.13;5031889;28;20190;-89
2022/01/29 03:48:36;;;;;;;3.25;0.30;;;;;;;13.36;80.08;101923.09;5033000;28;20033;-89
2022/01/29 03:51:02;;;;;;;0.40;0.20;;;;;;;13.36;80.26;101927.53;5031905;28;20014;-89
2022/01/29 03:53:27;;;;;;;4.10;0.50;;;;;;;13.24;80.70;101931.66;5033289;28;20034;-90
2022/01/29 03:55:52;;;;;;;3.97;0.43;;;;;;;13.22;81.16;101899.25;5008934;28;20036;-89
2022/01/29 03:58:18;;;;;;;1.50;0.20;;;;;;;13.18;80.75;101914.38;5017363;28;20057;-89
2022/01/29 04:00:43;;;;;;;2.45;0.40;;;;;;;13.27;80.77;101919.16;5010119;28;20025;-89
2022/01/29 04:03:09;;;;;;;3.15;0.47;;;;;;;12.65;84.98;101915.47;5011304;28;20072;-88
2022/01/29 04:05:34;;;;;;;1.27;0.80;;;;;;;13.22;81.63;101909.78;5000856;28;20038;-89
2022/01/29 04:08:00;;;;;;;2.58;0.55;;;;;;;13.24;81.06;101902.63;4993687;28;20117;-89
2022/01/29 04:10:29;;;;;;;2.25;0.60;;;;;;;13.32;80.02;101897.81;5002570;28;20018;-89
2022/01/29 04:12:55;;;;;;;2.75;0.40;;;;;;;13.43;80.00;101903.34;5012098;28;20018;-89
2022/01/29 04:15:21;;;;;;;2.20;0.50;;;;;;;13.47;79.03;101886.41;4999805;28;20535;-89
2022/01/29 04:17:46;;;;;;;1.08;0.40;;;;;;;13.47;78.70;101881.13;5009090;28;20022;-89
2022/01/29 04:20:12;;;;;;;1.52;0.50;;;;;;;13.52;79.15;101887.94;5007387;28;20085;-88
2022/01/29 04:22:38;;;;;;;1.08;0.52;;;;;;;13.39;79.81;101896.53;5010840;28;20033;-88
2022/01/29 04:25:04;;;;;;;1.50;0.38;;;;;;;13.36;80.02;101901.97;5006286;28;20048;-88
2022/01/29 04:27:40;;;;;;;3.67;0.47;;;;;;;13.44;79.42;101897.13;5009186;28;20031;-89
2022/01/29 04:30:12;;;;;;;0.85;0.60;;;;;;;13.27;80.11;101890.13;5007141;28;21332;-89
2022/01/29 04:35:06;;;;;;;2.88;0.57;;;;;;;13.30;79.88;101881.22;5008423;28;20392;-89
2022/01/29 04:37:31;;;;;;;4.05;0.30;;;;;;;13.48;78.72;101877.53;5012745;28;20030;-89
2022/01/29 04:39:57;;;;;;;0.77;0.40;;;;;;;13.43;78.51;101874.34;5011950;28;20018;-89
2022/01/29 04:42:22;;;;;;;3.95;0.40;;;;;;;13.18;79.47;101858.16;5011757;28;20034;-89
2022/01/29 04:44:47;;;;;;;1.38;0.28;;;;;;;13.37;78.90;101858.84;5008648;28;20033;-88
2022/01/29 04:47:13;;;;;;;2.63;0.40;;;;;;;13.56;77.33;101847.22;5010490;28;20080;-88
2022/01/29 04:49:38;;;;;;;0.80;0.30;;;;;;;13.34;79.03;101855.53;5006787;28;20030;-89
2022/01/29 04:52:04;;;;;;;1.80;0.30;;;;;;;13.16;79.78;101842.41;5010094;28;20068;-89
2022/01/29 04:54:29;;;;;;;2.30;0.30;;;;;;;13.25;79.27;101843.66;5011013;28;20512;-89
2022/01/29 04:56:54;;;;;;;0.88;0.45;;;;;;;13.48;77.39;101839.75;5009378;28;20033;-89
2022/01/29 04:59:20;;;;;;;2.38;0.50;;;;;;;13.19;78.77;101844.00;5008541;28;20076;-89
2022/01/29 05:01:45;;;;;;;2.42;0.40;;;;;;;13.24;78.92;101834.91;5010268;28;20109;-89
2022/01/29 05:04:11;;;;;;;1.55;0.40;;;;;;;13.30;77.98;101841.66;5010204;28;20018;-88
2022/01/29 05:06:36;;;;;;;1.63;0.45;;;;;;;13.46;77.59;101831.94;5010255;28;20034;-89
2022/01/29 05:09:03;;;;;;;2.05;0.47;;;;;;;13.25;78.43;101827.84;5010504;28;20026;-89
2022/01/29 05:11:29;;;;;;;2.22;0.40;;;;;;;13.14;78.52;101824.97;5009762;28;20132;-88
2022/01/29 05:13:54;;;;;;;2.13;0.30;;;;;;;13.21;78.71;101839.50;5009670;28;20101;-89
2022/01/29 05:27:03;;;;;;;2.38;0.40;;;;;;;13.24;78.38;101847.25;5013226;28;20440;-88
2022/01/29 05:29:31;;;;;;;4.60;0.68;;;;;;;12.95;79.15;101846.22;5012956;28;20494;-89
2022/01/29 05:31:58;;;;;;;7.43;0.93;;;;;;;13.12;78.34;101847.94;5012063;28;20025;-88
2022/01/29 05:34:23;;;;;;;1.33;0.30;;;;;;;13.27;77.27;101853.22;5012802;28;20242;-88
2022/01/29 05:36:49;;;;;;;4.85;0.50;;;;;;;13.19;77.62;101849.28;5013468;28;20038;-89
2022/01/29 05:39:16;;;;;;;3.67;0.43;;;;;;;13.19;77.06;101839.59;5012297;28;20152;-89
2022/01/29 05:41:41;;;;;;;1.85;0.47;;;;;;;13.49;75.67;101847.59;5012960;28;20030;-88
2022/01/29 05:44:07;;;;;;;3.90;0.40;;;;;;;13.29;76.98;101855.78;5012070;28;20029;-88
2022/01/29 05:46:32;;;;;;;0.57;0.25;;;;;;;13.49;76.04;101842.31;5012878;28;20068;-88
2022/01/29 05:48:58;;;;;;;1.65;0.60;;;;;;;13.20;77.51;101835.16;5012979;28;20519;-88
2022/01/29 05:51:23;;;;;;;1.75;0.60;;;;;;;13.38;76.74;101849.97;5013307;28;20034;-88
2022/01/29 05:53:49;;;;;;;2.88;0.85;;;;;;;13.37;77.32;101856.22;5012762;28;20029;-88
2022/01/29 05:56:14;;;;;;;2.55;0.50;;;;;;;13.60;76.09;101861.94;5011722;28;20076;-88
2022/01/29 05:58:39;;;;;;;1.17;0.30;;;;;;;13.49;76.25;101858.16;5011153;28;20033;-89
2022/01/29 06:01:05;;;;;;;6.35;0.50;;;;;;;13.59;75.64;101866.38;5013435;28;20025;-88
2022/01/29 06:03:31;;;;;;;2.50;1.23;;;;;;;13.53;75.22;101850.91;5009243;28;20109;-88
2022/01/29 06:05:57;;;;;;;1.95;0.50;;;;;;;13.70;75.22;101873.69;5011493;28;20133;-88
2022/01/29 06:08:22;;;;;;;3.08;0.40;;;;;;;13.44;75.36;101865.47;5012057;28;20028;-88
2022/01/29 06:10:49;;;;;;;0.32;0.10;;;;;;;13.68;75.07;101865.00;5012947;28;20469;-88
2022/01/29 06:13:16;;;;;;;2.47;0.30;;;;;;;13.66;74.77;101866.88;5012829;28;20032;-89
2022/01/29 06:15:44;;;;;;;1.50;0.50;;;;;;;13.45;75.29;101868.97;5010960;28;20045;-88
2022/01/29 06:18:18;;;;;;;4.32;0.60;;;;;;;13.61;75.07;101867.16;5013620;28;20076;-88
2022/01/29 06:20:46;;;;;;;2.67;0.65;;;;;;;13.55;75.30;101864.03;5011347;28;20080;-88
2022/01/29 06:23:13;;;;;;;2.40;0.45;;;;;;;13.61;75.16;101869.78;5012081;28;20054;-88
2022/01/29 06:25:39;;;;;;;3.22;0.50;;;;;;;13.72;74.65;101882.34;5011541;28;20034;-88
2022/01/29 06:28:04;;;;;;;3.67;0.60;;;;;;;13.59;75.09;101865.53;5010227;28;20033;-88
2022/01/29 06:30:30;;;;;;;2.25;0.70;;;;;;;13.63;74.57;101899.59;5012966;28;20492;-88
2022/01/29 06:32:56;;;;;;;6.13;1.50;;;;;;;13.57;74.74;101880.63;5010698;28;20116;-88
2022/01/29 06:35:21;;;;;;;5.20;0.60;;;;;;;13.27;75.39;101869.03;5012356;28;20030;-87
2022/01/29 06:37:47;;;;;;;3.80;0.90;;;;;;;13.56;74.83;101873.63;5012067;28;20026;-88
2022/01/29 06:40:13;;;;;;;5.97;2.97;;;;;;;13.57;74.90;101867.44;5012014;28;20026;-88
2022/01/29 06:42:39;;;;;;;4.30;0.80;;;;;;;13.54;74.48;101865.78;5010703;28;20018;-88
2022/01/29 06:45:05;;;;;;;7.38;1.17;;;;;;;13.52;74.67;101864.19;5011287;28;20075;-88
2022/01/29 06:47:31;;;;;;;5.68;0.80;;;;;;;13.52;74.38;101877.38;5010802;28;20568;-88
2022/01/29 06:49:56;;;;;;;3.75;0.88;;;;;;;13.17;75.94;101866.97;5010793;28;20032;-87
2022/01/29 06:52:22;;;;;;;5.95;1.20;;;;;;;13.33;75.68;101859.09;5012107;28;20156;-88
2022/01/29 06:54:47;;;;;;;10.25;0.88;;;;;;;13.54;74.49;101864.94;5010637;28;20052;-88
2022/01/29 06:57:13;;;;;;;3.30;0.63;;;;;;;13.44;74.96;101854.06;5011774;28;20033;-88
2022/01/29 06:59:38;;;;;;;3.78;0.60;;;;;;;13.26;75.62;101855.94;5012206;28;20534;-88
2022/01/29 07:02:04;;;;;;;5.68;0.90;;;;;;;13.32;75.62;101855.59;5011906;28;20025;-87
2022/01/29 07:04:29;;;;;;;3.35;0.80;;;;;;;12.95;76.79;101836.53;5012334;28;20116;-87
2022/01/29 07:06:55;;;;;;;5.93;0.75;;;;;;;13.42;75.24;101843.59;5011117;28;20030;-87
2022/01/29 07:09:20;;;;;;;7.30;0.93;;;;;;;13.27;75.58;101832.09;5011811;28;20519;-87
2022/01/29 07:11:46;;;;;;;3.40;0.45;;;;;;;13.18;76.12;101840.53;5009740;28;20053;-87
2022/01/29 07:14:17;;;;;;;4.55;0.60;;;;;;;13.16;76.33;101836.28;5011833;28;20034;-87
2022/01/29 07:16:43;;;;;;;6.35;0.57;;;;;;;13.05;76.50;101837.75;5010067;28;20392;-87
2022/01/29 07:19:09;;;;;;;3.78;1.05;;;;;;;13.10;76.49;101840.13;5011689;28;20033;-87
2022/01/29 07:21:36;;;;;;;3.65;0.68;;;;;;;13.21;76.30;101845.66;5010365;28;20044;-87
2022/01/29 07:24:01;;;;;;;1.65;0.30;;;;;;;13.09;76.51;101870.91;5010484;28;20484;-87
2022/01/29 07:26:27;;;;;;;3.53;0.60;;;;;;;13.16;76.32;101862.66;5011285;28;20029;-87
2022/01/29 07:28:52;;;;;;;6.00;1.15;;;;;;;13.12;76.19;101869.88;5008810;28;20026;-87
2022/01/29 07:31:18;;;;;;;3.65;0.75;;;;;;;13.07;76.72;101866.63;5012619;28;20057;-87
2022/01/29 07:33:43;;;;;;;5.38;0.57;;;;;;;13.17;76.03;101873.13;5027094;28;20010;-88
2022/01/29 07:36:09;;;;;;;4.03;0.52;;;;;;;13.39;75.59;101866.66;5033061;28;20308;-87
2022/01/29 07:38:34;;;;;;;2.88;0.50;;;;;;;13.33;75.40;101862.59;5031169;28;20041;-86
2022/01/29 07:40:59;;;;;;;3.63;0.70;;;;;;;13.22;75.66;101859.69;5034149;28;20010;-86
2022/01/29 07:43:25;;;;;;;2.60;0.40;;;;;;;13.83;73.11;101877.31;5034473;28;20029;-87
2022/01/29 07:45:50;;;;;;;3.78;0.60;;;;;;;13.45;74.25;101861.06;5028786;28;20017;-87
2022/01/29 07:48:15;;;;;;;4.65;2.15;;;;;;;13.56;74.01;101873.63;5033781;28;20010;-87
2022/01/29 07:50:41;;;;;;;8.85;0.80;;;;;;;13.54;74.18;101886.06;5019542;28;20412;-87
2022/01/29 07:53:06;;;;;;;8.75;0.75;;;;;;;13.23;75.26;101890.38;5010473;28;20072;-87
2022/01/29 07:55:32;;;;;;;6.28;1.02;;;;;;;13.32;74.39;101882.00;5009136;28;20053;-87
2022/01/29 07:58:02;;;;;;;4.30;0.60;;;;;;;13.52;74.13;101904.63;5009827;28;20025;-87
2022/01/29 08:00:28;;;;;;;6.20;1.42;;;;;;;13.81;72.73;101899.47;5008157;28;20388;-88
2022/01/29 08:02:54;;;;;;;2.92;0.70;;;;;;;13.87;72.40;101910.50;5010839;28;20116;-88
2022/01/29 08:05:19;;;;;;;8.70;1.00;;;;;;;13.58;73.70;101919.25;5009463;28;20117;-87
2022/01/29 08:07:45;;;;;;;10.00;1.30;;;;;;;13.65;73.55;101916.19;5011459;28;20061;-87
2022/01/29 08:10:10;;;;;;;8.48;1.23;;;;;;;13.98;72.07;101906.41;5008822;28;20816;-87
2022/01/29 08:12:35;;;;;;;6.65;1.20;;;;;;;13.98;72.08;101912.56;5009967;28;20038;-87
2022/01/29 08:15:03;;;;;;;5.45;1.30;;;;;;;13.74;73.12;101919.22;5012046;28;20370;-87
2022/01/29 08:17:28;;;;;;;10.23;0.93;;;;;;;13.78;73.06;101897.84;5010930;28;20436;-87
2022/01/29 08:19:53;;;;;;;5.57;0.63;;;;;;;13.78;73.23;101921.59;5008164;28;20249;-87
2022/01/29 08:22:19;;;;;;;3.65;0.40;;;;;;;13.60;73.57;101918.22;5010995;28;20496;-87
2022/01/29 08:24:45;;;;;;;6.43;0.88;;;;;;;13.76;73.33;101934.03;5007854;28;20059;-87
2022/01/29 08:27:11;;;;;;;5.78;0.70;;;;;;;13.79;72.95;101941.78;5010629;28;20618;-87
2022/01/29 08:29:36;;;;;;;5.93;1.02;;;;;;;14.10;72.08;101924.19;5010248;28;20042;-87
2022/01/29 08:32:03;;;;;;;6.53;1.52;;;;;;;13.79;73.00;101933.03;5010744;28;20044;-87
2022/01/29 08:34:28;;;;;;;7.68;0.80;;;;;;;13.78;73.12;101932.16;5010221;28;20523;-87
2022/01/29 08:36:57;;;;;;;5.15;0.55;;;;;;;13.86;72.65;101926.44;5011296;28;20025;-88
2022/01/29 08:39:24;;;;;;;3.42;0.70;;;;;;;13.94;71.98;101931.28;5008264;28;20034;-88
2022/01/29 08:41:50;;;;;;;4.63;0.43;;;;;;;13.88;72.36;101921.91;5010230;28;20030;-88
2022/01/29 08:44:15;;;;;;;5.95;0.73;;;;;;;14.16;71.63;101921.19;5008917;28;20091;-88
2022/01/29 08:46:41;;;;;;;10.70;1.17;;;;;;;13.72;72.40;101905.28;5003531;28;20388;-88
2022/01/29 08:49:06;;;;;;;5.78;1.25;;;;;;;13.96;72.16;101908.28;5000387;28;20038;-88
2022/01/29 08:51:32;;;;;;;5.78;1.05;;;;;;;14.04;71.99;101900.75;5014602;28;20033;-88
2022/01/29 08:53:58;;;;;;;4.75;0.88;;;;;;;13.91;72.29;101894.50;5011968;28;20022;-88
2022/01/29 08:56:23;;;;;;;5.97;0.85;;;;;;;14.08;71.58;101899.66;5015952;28;20044;-88
2022/01/29 08:58:48;;;;;;;6.88;1.00;;;;;;;14.16;71.84;101878.03;5014383;28;20422;-88
2022/01/29 09:01:14;;;;;;;2.72;0.50;;;;;;;14.08;71.33;101902.31;5015623;28;20109;-87
2022/01/29 09:03:40;;;;;;;5.43;0.50;;;;;;;13.60;72.44;101880.44;5011448;28;20032;-88
2022/01/29 09:06:06;;;;;;;3.63;0.65;;;;;;;14.02;71.63;101892.94;5014886;28;20487;-88
2022/01/29 09:08:32;;;;;;;5.15;0.43;;;;;;;13.91;72.10;101889.22;4998519;28;20038;-87
2022/01/29 09:10:58;;;;;;;3.78;0.38;;;;;;;13.87;72.31;101899.97;4995523;28;20026;-87
2022/01/29 09:13:27;;;;;;;4.75;0.65;;;;;;;13.96;71.79;101903.00;4996688;28;20113;-87
2022/01/29 09:15:54;;;;;;;2.15;0.45;;;;;;;13.96;71.81;101903.88;4994146;28;20037;-88
2022/01/29 09:18:19;;;;;;;2.22;0.40;;;;;;;14.05;71.84;101892.75;5002350;28;20404;-88
2022/01/29 09:20:45;;;;;;;2.25;0.32;;;;;;;13.99;71.68;101894.91;5004061;28;20034;-90
2022/01/29 09:23:10;;;;;;;7.57;0.70;;;;;;;14.05;71.65;101899.81;5013199;28;20030;-88
2022/01/29 09:25:36;;;;;;;4.65;0.63;;;;;;;14.17;71.43;101901.72;5014555;28;20503;-89
2022/01/29 09:28:06;;;;;;;3.85;0.60;;;;;;;14.29;71.00;101916.84;5003499;28;20476;-89
2022/01/29 09:30:33;;;;;;;3.58;0.47;;;;;;;13.99;71.87;101908.09;4995122;28;20105;-89
2022/01/29 09:32:59;;;;;;;2.70;0.28;;;;;;;14.18;71.36;101900.81;4994135;28;20444;-90
2022/01/29 09:35:25;;;;;;;1.67;0.40;;;;;;;14.28;71.33;101903.75;4993695;28;20117;-90
2022/01/29 09:37:51;;;;;;;2.58;0.43;;;;;;;14.39;70.97;101887.25;5005310;28;20022;-88
2022/01/29 09:40:17;;;;;;;2.70;0.73;;;;;;;14.01;72.17;101888.59;5014057;28;20026;-86
2022/01/29 09:42:45;;;;;;;3.10;0.50;;;;;;;14.19;71.99;101891.09;5013383;28;20117;-87
2022/01/29 09:45:16;;;;;;;1.65;0.40;;;;;;;14.23;71.75;101898.72;5013093;28;20087;-87
2022/01/29 09:47:44;;;;;;;1.80;0.30;;;;;;;14.34;71.64;101886.69;5011973;28;20551;-88
2022/01/29 09:50:12;;;;;;;2.17;0.35;;;;;;;14.40;71.44;101899.53;5000509;28;20069;-87
2022/01/29 09:52:38;;;;;;;4.22;0.63;;;;;;;14.44;71.25;101895.75;5003792;28;20579;-87
2022/01/29 09:55:04;;;;;;;2.40;0.50;;;;;;;14.24;71.52;101903.09;5003488;28;20049;-88
2022/01/29 09:57:29;;;;;;;3.92;1.05;;;;;;;14.09;71.68;101901.34;5013013;28;20088;-87
2022/01/29 09:59:55;;;;;;;4.00;0.47;;;;;;;14.38;71.35;101893.47;5006757;28;20421;-87
2022/01/29 10:02:21;;;;;;;3.05;0.70;;;;;;;14.40;71.62;101900.38;4995720;28;20026;-88
2022/01/29 10:04:48;;;;;;;3.38;0.70;;;;;;;14.29;71.44;101913.38;5011192;28;20034;-88
2022/01/29 10:07:19;;;;;;;2.28;0.50;;;;;;;14.40;71.11;101907.44;5011320;28;20084;-88
2022/01/29 10:09:45;;;;;;;2.63;0.30;;;;;;;14.08;72.12;101910.22;5002783;28;20022;-88
2022/01/29 10:12:21;;;;;;;4.30;1.02;;;;;;;14.37;71.15;101920.84;5002628;28;20025;-87
2022/01/29 10:15:07;;;;;;;3.72;0.57;;;;;;;14.26;71.30;101914.41;5012824;28;20061;-88
2022/01/29 10:17:47;;;;;;;2.78;0.40;;;;;;;14.52;70.49;101911.16;5002510;28;20022;-88
2022/01/29 10:20:14;;;;;;;2.75;0.43;;;;;;;14.57;70.68;101915.22;5003629;28;20246;-88
2022/01/29 10:22:40;;;;;;;2.10;0.52;;;;;;;14.53;70.98;101916.31;5010990;28;20109;-88
2022/01/29 10:25:11;;;;;;;4.22;1.02;;;;;;;14.52;70.30;101916.44;5013797;28;20361;-88
2022/01/29 10:27:38;;;;;;;3.65;0.73;;;;;;;14.22;71.54;101912.88;5009609;28;20026;-88
2022/01/29 10:30:04;;;;;;;2.53;0.60;;;;;;;14.21;72.31;101907.69;4994941;28;20388;-88
2022/01/29 10:32:29;;;;;;;3.03;0.60;;;;;;;14.46;71.74;101904.44;4995386;28;20103;-88
2022/01/29 10:34:56;;;;;;;4.38;1.00;;;;;;;14.50;71.50;101928.91;4995606;28;20477;-88
2022/01/29 10:37:25;;;;;;;2.63;0.50;;;;;;;14.28;71.82;101931.03;5000135;28;20037;-87
2022/01/29 10:40:00;;;;;;;3.58;0.40;;;;;;;14.49;71.58;101898.94;5008517;28;20044;-87
2022/01/29 10:42:29;;;;;;;1.15;0.20;;;;;;;14.48;71.91;101924.53;4997120;28;20109;-86
2022/01/29 10:44:57;;;;;;;1.13;0.25;;;;;;;13.92;73.64;101898.84;4998913;28;20121;-87
2022/01/29 10:47:23;;;;;;;1.77;0.32;;;;;;;14.35;72.36;101925.38;5011267;28;20069;-87
2022/01/29 10:49:53;;;;;;;3.22;0.55;;;;;;;14.06;73.51;101941.16;5011711;28;20037;-90
2022/01/29 10:52:31;;;;;;;3.20;0.40;;;;;;;14.06;73.61;101930.59;5010615;28;20038;-91
2022/01/29 10:54:59;;;;;;;2.08;0.40;;;;;;;13.98;74.50;101931.03;5012065;28;20037;-90
2022/01/29 10:57:39;;;;;;;2.25;0.95;;;;;;;13.99;74.86;101939.78;5008867;28;20029;-89
2022/01/29 11:00:08;;;;;;;3.97;0.50;;;;;;;13.75;75.16;101942.06;5006338;28;20054;-89
2022/01/29 11:02:33;;;;;;;2.88;0.40;;;;;;;13.84;75.43;101952.94;5003211;28;20514;-90
2022/01/29 11:05:02;;;;;;;4.13;0.32;;;;;;;14.08;74.21;101926.91;5004630;28;20030;-90
2022/01/29 11:07:30;;;;;;;3.65;0.40;;;;;;;13.96;74.72;101926.75;5000951;28;20046;-88
2022/01/29 11:09:58;;;;;;;3.17;0.70;;;;;;;13.77;75.78;101946.31;5000129;28;20041;-89
2022/01/29 11:12:26;;;;;;;4.45;0.73;;;;;;;13.99;75.11;101959.13;5001707;28;20109;-86
2022/01/29 11:14:54;;;;;;;0.50;0.20;;;;;;;13.78;75.53;101958.56;4995061;28;20481;-85
2022/01/29 11:17:22;;;;;;;1.80;0.47;;;;;;;13.60;76.75;101952.53;4998871;28;20057;-85
2022/01/29 11:19:47;;;;;;;4.18;0.45;;;;;;;13.85;75.74;101959.91;5007940;28;20034;-85
2022/01/29 11:22:18;;;;;;;2.22;0.75;;;;;;;13.58;75.97;101967.59;4993455;28;20035;-86
2022/01/29 11:24:43;;;;;;;0.68;0.40;;;;;;;13.79;75.43;101957.63;5004696;28;20034;-87
2022/01/29 11:27:29;;;;;;;1.60;0.50;;;;;;;13.77;75.95;101964.78;5009847;28;20033;-88
2022/01/29 11:30:14;;;;;;;2.45;0.47;;;;;;;13.67;76.57;101945.97;5008721;28;20057;-89
2022/01/29 11:32:47;;;;;;;3.88;0.50;;;;;;;13.78;76.42;101937.44;5027633;28;20018;-89
2022/01/29 11:35:22;;;;;;;3.33;0.60;;;;;;;13.81;76.10;101937.28;5030866;28;20037;-88